Time;durP1;ratioP1;P1;durP2;ratioP2;P2;SDS_P1;SDS_P2;PMS_P1;PMS_P2;Temp;Humidity;BMP_temperature;BMP_pressure;BME280_temperature;BME280_humidity;BME280_pressure;Samples;Min_cycle;Max_cycle;Signal;HPM_P1;HPM_P2
2022/02/27 00:01:01;;;;;;;8.55;6.05;;;6.30;63.10;;;;;;1083255;46;20058;-76
2022/02/27 00:02:24;;;;;;;9.82;6.43;;;6.30;63.20;;;;;;1082850;46;20034;-77
2022/02/27 00:03:46;;;;;;;11.98;5.70;;;6.30;63.20;;;;;;1083498;46;20034;-77
2022/02/27 00:05:07;;;;;;;11.70;6.78;;;6.30;63.30;;;;;;1083601;39;20438;-76
2022/02/27 00:06:28;;;;;;;11.73;6.50;;;6.20;63.40;;;;;;1082801;47;20042;-77
2022/02/27 00:07:49;;;;;;;11.90;6.80;;;6.30;63.50;;;;;;1082701;39;20560;-77
2022/02/27 00:09:10;;;;;;;10.73;6.22;;;6.30;63.60;;;;;;1082596;46;20038;-77
2022/02/27 00:10:32;;;;;;;10.70;6.43;;;6.20;63.60;;;;;;1083088;39;20788;-76
2022/02/27 00:11:52;;;;;;;8.00;5.75;;;6.20;63.60;;;;;;1084498;47;20030;-76
2022/02/27 00:13:13;;;;;;;10.18;6.22;;;6.20;63.60;;;;;;1082723;46;20182;-77
2022/02/27 00:14:35;;;;;;;15.27;7.38;;;6.20;63.70;;;;;;1083582;46;20146;-78
2022/02/27 00:15:56;;;;;;;12.45;6.38;;;6.20;63.80;;;;;;1082182;39;20858;-76
2022/02/27 00:17:17;;;;;;;9.15;6.10;;;6.20;63.90;;;;;;1082895;46;20046;-78
2022/02/27 00:18:38;;;;;;;10.48;5.88;;;6.20;63.80;;;;;;1082684;47;20038;-78
2022/02/27 00:19:59;;;;;;;10.05;6.00;;;6.20;63.90;;;;;;1082789;46;20521;-78
2022/02/27 00:21:20;;;;;;;11.05;5.97;;;6.20;63.90;;;;;;1081480;54;20069;-78
2022/02/27 00:22:41;;;;;;;10.82;6.00;;;6.20;64.00;;;;;;1083004;46;20038;-78
2022/02/27 00:24:02;;;;;;;8.27;6.07;;;6.20;64.10;;;;;;1082360;39;20359;-79
2022/02/27 00:25:23;;;;;;;10.30;5.78;;;6.20;64.10;;;;;;1083379;46;20049;-78
2022/02/27 00:26:44;;;;;;;12.45;5.82;;;6.10;64.20;;;;;;1083646;39;21353;-78
2022/02/27 00:28:07;;;;;;;10.77;6.65;;;6.10;64.20;;;;;;1081529;47;20497;-77
2022/02/27 00:29:28;;;;;;;9.68;6.63;;;6.10;64.40;;;;;;1082984;46;20044;-79
2022/02/27 00:30:51;;;;;;;12.38;6.28;;;6.10;64.30;;;;;;1082420;46;20034;-78
2022/02/27 00:32:12;;;;;;;11.60;6.82;;;6.10;64.30;;;;;;1083625;39;20408;-78
2022/02/27 00:33:33;;;;;;;8.65;6.03;;;6.10;64.40;;;;;;1084017;39;20623;-78
2022/02/27 00:34:55;;;;;;;9.50;6.10;;;6.10;64.40;;;;;;1082940;46;20111;-80
2022/02/27 00:36:17;;;;;;;11.93;6.55;;;6.10;64.50;;;;;;1081724;47;20038;-79
2022/02/27 00:37:38;;;;;;;9.80;6.63;;;6.10;64.50;;;;;;1082711;46;20034;-77
2022/02/27 00:38:59;;;;;;;12.10;5.95;;;6.10;64.70;;;;;;1086143;39;20405;-78
2022/02/27 00:40:20;;;;;;;9.65;5.80;;;6.10;64.70;;;;;;1082138;46;20034;-75
2022/02/27 00:41:41;;;;;;;9.70;5.93;;;6.10;64.80;;;;;;1088119;47;20065;-76
2022/02/27 00:44:07;;;;;;;16.20;7.00;;;6.10;64.90;;;;;;1086553;54;20014;-80
2022/02/27 00:45:28;;;;;;;11.63;6.40;;;6.10;65.00;;;;;;1086911;46;20038;-78
2022/02/27 00:46:49;;;;;;;10.70;5.90;;;6.10;65.10;;;;;;1086608;47;20041;-78
2022/02/27 00:50:19;;;;;;;10.27;6.63;;;6.00;65.00;;;;;;1084321;54;20086;-79
2022/02/27 00:51:41;;;;;;;11.18;6.15;;;6.00;65.20;;;;;;1085148;46;20046;-80
2022/02/27 00:53:02;;;;;;;8.27;6.07;;;6.00;65.30;;;;;;1088908;31;20411;-77
2022/02/27 00:54:23;;;;;;;12.80;6.55;;;6.00;65.40;;;;;;1088292;46;20030;-78
2022/02/27 00:55:44;;;;;;;10.95;6.72;;;6.00;65.30;;;;;;1087194;46;20033;-78
2022/02/27 00:57:05;;;;;;;12.23;5.70;;;6.00;65.30;;;;;;1087492;46;20023;-76
2022/02/27 00:58:26;;;;;;;13.15;6.20;;;6.00;65.30;;;;;;1085989;39;20468;-78
2022/02/27 00:59:46;;;;;;;7.72;5.72;;;6.00;65.30;;;;;;1085980;31;20765;-77
2022/02/27 01:01:07;;;;;;;10.45;6.05;;;6.00;65.30;;;;;;1084314;39;20406;-75
2022/02/27 01:02:28;;;;;;;11.30;6.30;;;6.00;65.30;;;;;;1083451;47;20057;-76
2022/02/27 01:03:49;;;;;;;12.00;6.10;;;6.00;65.30;;;;;;1082937;47;20593;-76
2022/02/27 01:05:10;;;;;;;10.30;5.55;;;6.00;65.30;;;;;;1083474;46;20044;-75
2022/02/27 01:06:31;;;;;;;11.60;6.13;;;6.00;66.10;;;;;;1084034;39;20394;-75
2022/02/27 01:07:54;;;;;;;11.80;5.68;;;6.00;65.40;;;;;;1083142;46;20042;-75
2022/02/27 01:09:15;;;;;;;13.32;6.28;;;5.90;65.50;;;;;;1082767;47;20509;-75
2022/02/27 01:10:36;;;;;;;10.02;5.78;;;5.90;65.50;;;;;;1082817;47;20039;-75
2022/02/27 01:11:57;;;;;;;12.57;6.10;;;6.00;65.70;;;;;;1083132;39;20377;-76
2022/02/27 01:13:18;;;;;;;10.15;5.75;;;5.90;65.60;;;;;;1084063;39;20410;-76
2022/02/27 01:14:39;;;;;;;8.10;5.63;;;5.90;65.70;;;;;;1084954;39;20355;-76
2022/02/27 01:16:00;;;;;;;8.55;5.72;;;5.90;65.80;;;;;;1084320;47;20058;-75
2022/02/27 01:17:21;;;;;;;12.00;6.18;;;5.90;65.80;;;;;;1083197;47;20034;-77
2022/02/27 01:18:42;;;;;;;11.45;6.20;;;5.90;65.80;;;;;;1083408;47;21084;-75
2022/02/27 01:20:07;;;;;;;7.32;5.50;;;5.90;65.90;;;;;;1083356;47;20541;-76
2022/02/27 01:21:28;;;;;;;14.57;5.80;;;5.90;66.30;;;;;;1082032;46;20037;-78
2022/02/27 01:22:48;;;;;;;11.55;6.60;;;5.90;65.90;;;;;;1085997;47;20057;-79
2022/02/27 01:24:09;;;;;;;9.20;5.80;;;5.90;65.90;;;;;;1084466;47;20035;-77
2022/02/27 01:25:33;;;;;;;10.57;5.85;;;5.90;66.00;;;;;;1086757;47;20023;-79
2022/02/27 01:26:54;;;;;;;8.95;5.93;;;5.90;66.30;;;;;;1089288;39;20403;-79
2022/02/27 01:28:16;;;;;;;9.07;5.75;;;5.90;66.00;;;;;;1087866;47;20038;-80
2022/02/27 01:29:37;;;;;;;10.65;6.00;;;5.90;66.10;;;;;;1084667;47;20486;-77
2022/02/27 01:30:58;;;;;;;12.10;6.03;;;5.90;66.90;;;;;;1082910;31;20439;-77
2022/02/27 01:32:19;;;;;;;8.82;5.43;;;5.80;66.20;;;;;;1082931;47;20065;-76
2022/02/27 01:33:40;;;;;;;11.52;6.03;;;5.90;66.30;;;;;;1088575;39;20459;-79
2022/02/27 01:38:13;;;;;;;9.30;5.75;;;5.80;66.40;;;;;;1080251;54;20046;-78
2022/02/27 01:53:28;;;;;;;10.77;5.82;;;5.80;67.50;;;;;;1079240;54;20965;-80
2022/02/27 01:54:49;;;;;;;10.70;6.00;;;5.70;67.50;;;;;;1088544;47;20062;-80
2022/02/27 01:56:10;;;;;;;11.15;6.20;;;5.70;67.40;;;;;;1087146;47;20026;-80
2022/02/27 01:57:32;;;;;;;8.80;6.15;;;5.80;67.30;;;;;;1084356;47;20499;-78
2022/02/27 01:58:53;;;;;;;10.27;5.50;;;5.80;67.20;;;;;;1083717;39;20398;-78
2022/02/27 02:00:15;;;;;;;7.95;5.57;;;5.80;67.20;;;;;;1083532;47;20073;-79
2022/02/27 02:01:36;;;;;;;9.07;6.18;;;5.70;67.00;;;;;;1083591;47;20038;-79
2022/02/27 02:02:57;;;;;;;10.40;6.40;;;5.70;67.00;;;;;;1083106;47;20497;-78
2022/02/27 02:04:19;;;;;;;9.23;5.82;;;5.70;67.00;;;;;;1082756;47;20424;-78
2022/02/27 02:05:40;;;;;;;9.38;5.65;;;5.70;67.10;;;;;;1082174;47;20125;-78
2022/02/27 02:07:01;;;;;;;7.80;5.13;;;5.70;67.00;;;;;;1081662;54;20050;-77
2022/02/27 02:08:22;;;;;;;8.60;5.70;;;5.70;67.10;;;;;;1082396;47;20083;-77
2022/02/27 02:09:43;;;;;;;7.47;5.28;;;5.70;67.00;;;;;;1081850;47;20038;-78
2022/02/27 02:11:05;;;;;;;10.85;5.47;;;5.70;67.00;;;;;;1082375;47;20593;-77
2022/02/27 02:12:26;;;;;;;8.60;5.43;;;5.70;67.00;;;;;;1082059;47;20098;-77
2022/02/27 02:13:48;;;;;;;10.90;5.97;;;5.70;67.00;;;;;;1082415;39;20497;-78
2022/02/27 02:15:11;;;;;;;9.05;5.05;;;5.70;67.10;;;;;;1080892;47;20603;-78
2022/02/27 02:16:49;;;;;;;9.55;5.25;;;5.60;67.00;;;;;;1083330;47;20045;-79
2022/02/27 02:18:10;;;;;;;7.90;4.68;;;5.70;67.90;;;;;;1085131;47;20510;-79
2022/02/27 02:19:31;;;;;;;11.25;5.38;;;5.60;67.00;;;;;;1084431;47;20034;-79
2022/02/27 02:20:53;;;;;;;9.80;4.97;;;5.60;67.00;;;;;;1088884;47;20747;-79
2022/02/27 02:22:15;;;;;;;7.82;5.25;;;5.60;67.10;;;;;;1089407;46;20026;-79
2022/02/27 02:25:41;;;;;;;12.40;5.72;;;5.60;67.10;;;;;;1083977;54;20058;-80
2022/02/27 02:27:03;;;;;;;9.93;5.28;;;5.60;67.30;;;;;;1086361;47;20061;-79
2022/02/27 02:28:24;;;;;;;12.98;5.85;;;5.60;67.50;;;;;;1085205;47;20055;-79
2022/02/27 02:29:45;;;;;;;9.38;4.78;;;5.50;67.30;;;;;;1085439;46;20046;-78
2022/02/27 02:31:06;;;;;;;8.18;4.90;;;5.60;67.40;;;;;;1082701;46;20034;-79
2022/02/27 02:32:27;;;;;;;10.55;4.93;;;5.50;67.40;;;;;;1083915;46;20590;-79
2022/02/27 02:33:48;;;;;;;9.75;5.47;;;5.60;67.50;;;;;;1083179;46;20062;-78
2022/02/27 02:35:09;;;;;;;9.55;5.20;;;5.50;67.30;;;;;;1082610;46;20518;-78
2022/02/27 02:36:31;;;;;;;6.97;5.20;;;5.50;67.30;;;;;;1082761;46;21005;-77
2022/02/27 02:37:53;;;;;;;7.25;5.03;;;5.50;67.40;;;;;;1081114;46;20525;-76
2022/02/27 02:39:16;;;;;;;8.80;5.55;;;5.50;67.40;;;;;;1082291;39;20410;-76
2022/02/27 02:40:37;;;;;;;8.15;5.45;;;5.50;67.60;;;;;;1082414;46;20038;-78
2022/02/27 02:41:58;;;;;;;8.10;5.15;;;5.50;67.40;;;;;;1083373;46;20035;-76
2022/02/27 02:43:20;;;;;;;8.23;4.95;;;5.50;67.40;;;;;;1082675;39;20420;-76
2022/02/27 02:44:41;;;;;;;9.25;5.72;;;5.50;67.40;;;;;;1082446;46;20054;-77
2022/02/27 02:46:02;;;;;;;9.77;5.55;;;5.60;67.50;;;;;;1082540;39;20386;-77
2022/02/27 02:47:23;;;;;;;9.57;5.30;;;5.50;67.40;;;;;;1082241;47;20046;-77
2022/02/27 02:48:44;;;;;;;7.63;5.38;;;5.50;67.50;;;;;;1082148;39;20422;-75
2022/02/27 02:50:06;;;;;;;6.88;5.13;;;5.50;67.60;;;;;;1082448;47;20043;-76
2022/02/27 02:51:27;;;;;;;10.38;5.18;;;5.50;67.70;;;;;;1082485;47;20045;-75
2022/02/27 02:52:48;;;;;;;10.05;5.40;;;5.40;67.50;;;;;;1082293;47;20787;-76
2022/02/27 02:54:10;;;;;;;7.57;4.65;;;5.50;67.60;;;;;;1083487;39;20539;-76
2022/02/27 02:55:31;;;;;;;9.73;5.03;;;5.40;67.60;;;;;;1082076;47;20490;-75
2022/02/27 02:56:52;;;;;;;10.57;5.40;;;5.40;67.50;;;;;;1081757;47;20479;-75
2022/02/27 02:58:13;;;;;;;9.25;5.43;;;5.40;67.70;;;;;;1081275;47;20038;-75
2022/02/27 02:59:34;;;;;;;7.93;4.82;;;5.40;67.70;;;;;;1081500;46;20027;-74
2022/02/27 03:00:54;;;;;;;9.00;4.95;;;5.40;67.70;;;;;;1082091;47;20045;-75
2022/02/27 03:02:16;;;;;;;7.13;4.95;;;5.40;67.70;;;;;;1081788;46;20050;-75
2022/02/27 03:03:38;;;;;;;9.10;4.80;;;5.40;67.80;;;;;;1082007;46;20217;-75
2022/02/27 03:05:00;;;;;;;9.82;5.25;;;5.40;67.90;;;;;;1082537;46;20042;-75
2022/02/27 03:06:21;;;;;;;7.85;5.07;;;5.40;67.70;;;;;;1081487;46;20035;-76
2022/02/27 03:07:42;;;;;;;8.02;4.70;;;5.40;67.80;;;;;;1081494;47;20038;-76
2022/02/27 03:09:04;;;;;;;11.00;5.43;;;5.40;67.80;;;;;;1081940;46;20509;-76
2022/02/27 03:10:25;;;;;;;6.80;4.88;;;5.40;67.90;;;;;;1082098;47;20039;-76
2022/02/27 03:11:47;;;;;;;9.63;5.40;;;5.40;67.90;;;;;;1082205;46;20031;-76
2022/02/27 03:13:08;;;;;;;7.55;4.85;;;5.40;68.00;;;;;;1083127;39;20378;-76
2022/02/27 03:14:28;;;;;;;10.32;5.13;;;5.40;67.90;;;;;;1082978;47;20498;-75
2022/02/27 03:15:50;;;;;;;8.02;4.80;;;5.30;67.80;;;;;;1082857;47;20038;-76
2022/02/27 03:17:11;;;;;;;9.25;5.35;;;5.30;67.80;;;;;;1082958;46;20526;-76
2022/02/27 03:18:32;;;;;;;11.77;5.28;;;5.30;67.90;;;;;;1083206;46;20042;-76
2022/02/27 03:19:54;;;;;;;11.05;5.30;;;5.30;67.90;;;;;;1083876;47;20577;-76
2022/02/27 03:21:15;;;;;;;8.82;4.85;;;5.30;68.00;;;;;;1084163;54;20115;-76
2022/02/27 03:22:35;;;;;;;9.75;5.35;;;5.30;68.00;;;;;;1083303;47;20041;-76
2022/02/27 03:23:56;;;;;;;9.68;5.45;;;5.30;68.00;;;;;;1082460;46;20070;-75
2022/02/27 03:25:17;;;;;;;8.95;4.95;;;5.30;68.10;;;;;;1083164;39;20362;-75
2022/02/27 03:26:38;;;;;;;7.30;5.40;;;5.30;68.10;;;;;;1081909;46;20605;-75
2022/02/27 03:27:59;;;;;;;9.15;4.88;;;5.30;68.10;;;;;;1082041;47;20653;-75
2022/02/27 03:29:20;;;;;;;8.32;5.18;;;5.30;68.10;;;;;;1082704;46;20030;-75
2022/02/27 03:30:43;;;;;;;8.50;4.93;;;5.30;68.10;;;;;;1082769;54;20039;-75
2022/02/27 03:32:04;;;;;;;9.35;5.05;;;5.20;68.10;;;;;;1082018;47;20618;-76
2022/02/27 03:33:25;;;;;;;10.02;5.35;;;5.30;68.30;;;;;;1082623;39;20462;-75
2022/02/27 03:34:46;;;;;;;8.02;4.85;;;5.30;68.20;;;;;;1082051;47;20076;-75
2022/02/27 03:36:07;;;;;;;7.15;4.85;;;5.20;68.10;;;;;;1082428;46;20080;-76
2022/02/27 03:37:28;;;;;;;6.22;4.75;;;5.20;68.10;;;;;;1081974;46;20043;-75
2022/02/27 03:38:49;;;;;;;8.70;5.30;;;5.20;68.20;;;;;;1082209;46;20059;-75
2022/02/27 03:40:10;;;;;;;10.32;4.80;;;5.20;68.30;;;;;;1082088;39;20348;-75
2022/02/27 03:41:31;;;;;;;11.38;5.60;;;5.20;68.40;;;;;;1081858;47;20518;-75
2022/02/27 03:42:53;;;;;;;7.15;5.03;;;5.20;68.40;;;;;;1082293;46;20030;-75
2022/02/27 03:44:14;;;;;;;8.40;5.00;;;5.20;68.50;;;;;;1082790;46;20057;-76
2022/02/27 03:45:35;;;;;;;12.02;4.90;;;5.20;68.70;;;;;;1081880;46;20635;-76
2022/02/27 03:46:56;;;;;;;8.43;5.00;;;5.10;68.60;;;;;;1082325;54;20038;-75
2022/02/27 03:48:17;;;;;;;7.90;4.57;;;5.10;68.60;;;;;;1081061;46;20129;-76
2022/02/27 03:49:38;;;;;;;11.13;5.28;;;5.10;68.70;;;;;;1081934;46;20082;-75
2022/02/27 03:50:59;;;;;;;7.40;4.85;;;5.10;68.60;;;;;;1082719;39;20086;-77
2022/02/27 03:52:23;;;;;;;6.82;4.45;;;5.10;68.70;;;;;;1082788;46;20050;-76
2022/02/27 03:53:44;;;;;;;8.00;4.90;;;5.10;69.10;;;;;;1082234;54;20126;-76
2022/02/27 03:55:06;;;;;;;9.40;5.22;;;5.10;68.60;;;;;;1082014;47;20046;-77
2022/02/27 03:56:27;;;;;;;9.75;4.97;;;5.10;68.80;;;;;;1083503;54;20142;-78
2022/02/27 03:57:50;;;;;;;6.72;4.70;;;5.10;68.60;;;;;;1084742;46;20054;-78
2022/02/27 03:59:11;;;;;;;9.07;5.20;;;5.10;68.70;;;;;;1084249;46;20526;-77
2022/02/27 04:00:32;;;;;;;8.25;5.28;;;5.10;68.70;;;;;;1083834;47;20041;-76
2022/02/27 04:01:53;;;;;;;10.43;4.95;;;5.00;68.80;;;;;;1084313;46;20042;-77
2022/02/27 04:03:14;;;;;;;9.15;5.15;;;5.00;68.70;;;;;;1083649;46;20038;-77
2022/02/27 04:04:35;;;;;;;8.02;4.60;;;5.00;68.80;;;;;;1083116;46;20034;-76
2022/02/27 04:05:56;;;;;;;8.82;4.57;;;5.00;68.70;;;;;;1083074;46;20059;-76
2022/02/27 04:07:17;;;;;;;8.13;4.70;;;5.00;68.60;;;;;;1082462;46;20034;-76
2022/02/27 04:08:39;;;;;;;8.27;4.65;;;5.00;68.60;;;;;;1086649;46;20035;-77
2022/02/27 04:10:00;;;;;;;6.70;4.20;;;5.00;68.70;;;;;;1085637;54;20027;-78
2022/02/27 04:11:21;;;;;;;7.90;4.57;;;5.00;68.80;;;;;;1087624;47;20041;-79
2022/02/27 04:12:42;;;;;;;5.47;4.70;;;4.90;68.80;;;;;;1083179;46;20507;-77
2022/02/27 04:14:03;;;;;;;10.52;5.22;;;4.90;68.90;;;;;;1082407;47;20042;-78
2022/02/27 04:15:25;;;;;;;4.97;4.25;;;4.90;68.80;;;;;;1081240;47;20035;-75
2022/02/27 04:16:46;;;;;;;8.02;4.57;;;4.90;68.90;;;;;;1082621;46;20046;-76
2022/02/27 04:18:06;;;;;;;7.00;4.78;;;4.90;69.00;;;;;;1082045;47;20041;-76
2022/02/27 04:19:27;;;;;;;7.55;4.70;;;4.90;69.00;;;;;;1082769;47;20065;-76
2022/02/27 04:20:48;;;;;;;9.52;5.13;;;4.90;69.10;;;;;;1082492;46;20041;-78
2022/02/27 04:22:09;;;;;;;8.98;5.20;;;4.90;69.10;;;;;;1082698;46;20034;-77
2022/02/27 04:23:30;;;;;;;6.35;4.30;;;4.90;69.10;;;;;;1081565;47;20038;-76
2022/02/27 04:24:51;;;;;;;7.38;4.32;;;4.80;69.20;;;;;;1082655;46;20042;-76
2022/02/27 04:26:12;;;;;;;5.75;4.22;;;4.90;69.20;;;;;;1082197;47;20034;-76
2022/02/27 04:27:33;;;;;;;8.73;4.68;;;4.80;69.20;;;;;;1081798;47;20040;-76
2022/02/27 04:28:54;;;;;;;10.05;4.53;;;4.80;69.20;;;;;;1082278;46;20038;-76
2022/02/27 04:30:15;;;;;;;7.50;4.93;;;4.80;69.20;;;;;;1084787;47;20034;-78
2022/02/27 04:31:37;;;;;;;7.25;4.75;;;4.80;69.30;;;;;;1086409;47;20034;-78
2022/02/27 04:32:58;;;;;;;7.13;4.88;;;4.80;69.30;;;;;;1084028;46;20034;-76
2022/02/27 04:34:21;;;;;;;6.95;4.93;;;4.80;69.30;;;;;;1082278;46;20042;-76
2022/02/27 04:35:42;;;;;;;5.88;4.38;;;4.80;69.30;;;;;;1082358;47;20684;-76
2022/02/27 04:37:04;;;;;;;5.55;4.10;;;4.80;69.40;;;;;;1083479;46;20059;-77
2022/02/27 04:38:25;;;;;;;9.93;4.30;;;4.70;69.50;;;;;;1084053;47;20034;-77
2022/02/27 04:39:46;;;;;;;9.48;4.40;;;4.70;69.40;;;;;;1084637;47;20041;-78
2022/02/27 04:41:07;;;;;;;5.93;4.22;;;4.70;69.50;;;;;;1084887;47;20133;-79
2022/02/27 04:42:28;;;;;;;8.40;4.90;;;4.70;69.60;;;;;;1083832;47;20515;-77
2022/02/27 04:43:49;;;;;;;9.00;4.35;;;4.70;69.70;;;;;;1087487;46;20034;-80
2022/02/27 04:45:11;;;;;;;6.45;4.22;;;4.70;69.90;;;;;;1088475;47;20030;-79
2022/02/27 04:46:32;;;;;;;7.50;4.30;;;4.70;69.80;;;;;;1082442;46;20077;-79
2022/02/27 04:47:53;;;;;;;7.38;4.38;;;4.60;69.90;;;;;;1085706;47;20034;-78
2022/02/27 04:58:57;;;;;;;9.25;5.07;;;4.60;71.20;;;;;;1079847;54;20885;-77
2022/02/27 05:02:28;;;;;;;7.50;4.40;;;4.60;71.40;;;;;;1081923;54;20158;-76
2022/02/27 05:03:49;;;;;;;7.32;4.10;;;4.70;71.50;;;;;;1081119;47;21395;-77
2022/02/27 05:05:10;;;;;;;6.80;4.18;;;4.70;71.60;;;;;;1084086;47;20076;-77
2022/02/27 05:06:33;;;;;;;9.23;4.50;;;4.60;72.30;;;;;;1085883;47;20038;-77
2022/02/27 05:07:53;;;;;;;7.35;4.20;;;4.70;71.50;;;;;;1084450;46;20057;-77
2022/02/27 05:09:17;;;;;;;6.68;4.30;;;4.70;71.50;;;;;;1085666;47;20119;-78
2022/02/27 05:10:39;;;;;;;8.45;4.10;;;4.70;71.50;;;;;;1085010;46;20026;-78
2022/02/27 05:12:00;;;;;;;5.20;4.25;;;4.70;71.40;;;;;;1085678;47;20635;-73
2022/02/27 05:13:21;;;;;;;6.93;4.10;;;4.70;71.40;;;;;;1081780;47;20035;-73
2022/02/27 05:14:42;;;;;;;9.15;4.50;;;4.70;71.30;;;;;;1081947;46;20057;-72
2022/02/27 05:16:03;;;;;;;7.43;3.92;;;4.70;71.40;;;;;;1081818;47;20058;-73
2022/02/27 05:17:24;;;;;;;6.53;4.00;;;4.70;71.40;;;;;;1081985;47;20065;-73
2022/02/27 05:18:45;;;;;;;7.93;4.10;;;4.70;71.30;;;;;;1082355;46;20034;-72
2022/02/27 05:20:07;;;;;;;6.25;3.88;;;4.70;71.30;;;;;;1082016;47;20042;-73
2022/02/27 05:21:28;;;;;;;8.32;4.35;;;4.70;71.30;;;;;;1081907;47;20038;-74
2022/02/27 05:22:50;;;;;;;7.03;3.70;;;4.70;71.30;;;;;;1081831;46;20034;-73
2022/02/27 05:24:11;;;;;;;4.07;3.65;;;4.70;71.50;;;;;;1081106;47;20034;-73
2022/02/27 05:25:32;;;;;;;8.85;4.43;;;4.70;71.40;;;;;;1081756;47;20150;-74
2022/02/27 05:26:53;;;;;;;10.63;4.65;;;4.70;71.40;;;;;;1081240;47;20474;-74
2022/02/27 05:28:14;;;;;;;8.27;4.30;;;4.70;71.30;;;;;;1081307;47;20038;-73
2022/02/27 05:29:35;;;;;;;5.10;4.00;;;4.70;71.30;;;;;;1081315;47;20150;-73
2022/02/27 05:30:56;;;;;;;6.40;4.13;;;4.70;71.30;;;;;;1081770;47;20058;-74
2022/02/27 05:32:17;;;;;;;6.13;3.80;;;4.70;71.40;;;;;;1082455;47;20058;-73
2022/02/27 05:33:38;;;;;;;4.75;3.90;;;4.70;71.40;;;;;;1082986;46;20057;-71
2022/02/27 05:34:59;;;;;;;7.50;4.07;;;4.70;71.30;;;;;;1081366;47;20034;-72
2022/02/27 05:36:20;;;;;;;7.03;4.25;;;4.70;71.50;;;;;;1081318;47;20497;-72
2022/02/27 05:37:42;;;;;;;9.00;4.43;;;4.70;71.50;;;;;;1081573;47;20061;-71
2022/02/27 05:39:04;;;;;;;8.10;4.15;;;4.70;71.50;;;;;;1081506;46;20038;-73
2022/02/27 05:40:25;;;;;;;6.75;4.07;;;4.70;71.60;;;;;;1082120;47;20069;-73
2022/02/27 05:41:46;;;;;;;5.72;3.85;;;4.70;71.50;;;;;;1082189;47;20034;-73
2022/02/27 05:43:08;;;;;;;4.80;3.85;;;4.70;71.50;;;;;;1082054;47;20034;-73
2022/02/27 05:44:28;;;;;;;8.63;4.18;;;4.70;71.50;;;;;;1081413;31;20589;-70
2022/02/27 05:45:49;;;;;;;7.15;4.03;;;4.70;71.50;;;;;;1082663;47;20037;-74
2022/02/27 05:47:11;;;;;;;6.65;3.92;;;4.70;71.50;;;;;;1081745;54;20133;-71
2022/02/27 05:48:31;;;;;;;7.50;4.20;;;4.70;71.50;;;;;;1082676;47;20041;-70
2022/02/27 05:49:53;;;;;;;6.40;3.67;;;4.70;71.50;;;;;;1080487;47;20173;-71
2022/02/27 05:51:14;;;;;;;4.70;3.67;;;4.70;71.60;;;;;;1082675;47;20046;-72
2022/02/27 05:52:35;;;;;;;8.95;4.18;;;4.70;71.60;;;;;;1081053;47;20046;-72
2022/02/27 05:53:56;;;;;;;8.73;4.20;;;4.70;71.60;;;;;;1082147;47;20026;-71
2022/02/27 05:55:17;;;;;;;8.75;4.30;;;4.70;71.70;;;;;;1081784;47;20090;-71
2022/02/27 05:56:38;;;;;;;7.30;4.18;;;4.70;71.70;;;;;;1081358;47;20041;-70
2022/02/27 05:57:59;;;;;;;5.95;4.45;;;4.70;71.80;;;;;;1082184;46;20041;-70
2022/02/27 05:59:20;;;;;;;7.75;4.30;;;4.60;71.60;;;;;;1083371;31;20515;-70
2022/02/27 06:00:41;;;;;;;6.18;4.45;;;4.70;71.80;;;;;;1081802;46;20048;-71
2022/02/27 06:02:02;;;;;;;6.10;4.47;;;4.70;71.70;;;;;;1082283;46;20034;-70
2022/02/27 06:03:23;;;;;;;6.82;4.10;;;4.60;71.70;;;;;;1082337;47;20069;-71
2022/02/27 06:04:44;;;;;;;7.68;4.35;;;4.70;71.80;;;;;;1082317;46;20041;-71
2022/02/27 06:06:05;;;;;;;5.80;4.20;;;4.70;71.90;;;;;;1083118;39;20399;-71
2022/02/27 06:07:26;;;;;;;6.60;4.60;;;4.70;71.80;;;;;;1080706;47;20137;-71
2022/02/27 06:08:47;;;;;;;6.30;4.43;;;4.70;71.90;;;;;;1081406;39;20407;-71
2022/02/27 06:10:08;;;;;;;6.55;3.88;;;4.70;71.90;;;;;;1081941;47;20042;-71
2022/02/27 06:11:30;;;;;;;7.07;4.18;;;4.70;71.90;;;;;;1082528;46;20034;-71
2022/02/27 06:12:51;;;;;;;7.68;4.07;;;4.60;71.80;;;;;;1082791;46;20048;-71
2022/02/27 06:14:12;;;;;;;4.85;4.00;;;4.60;71.80;;;;;;1082088;46;20034;-71
2022/02/27 06:15:33;;;;;;;6.10;4.07;;;4.60;71.80;;;;;;1082216;46;20034;-72
2022/02/27 06:16:54;;;;;;;8.30;4.90;;;4.70;71.90;;;;;;1082306;46;20035;-71
2022/02/27 06:18:15;;;;;;;8.38;4.13;;;4.70;71.80;;;;;;1081956;46;20041;-71
2022/02/27 06:19:36;;;;;;;7.47;4.43;;;4.60;71.80;;;;;;1081136;46;20375;-71
2022/02/27 06:20:57;;;;;;;12.18;4.30;;;4.60;71.80;;;;;;1082244;46;20034;-72
2022/02/27 06:22:18;;;;;;;8.18;4.38;;;4.60;71.80;;;;;;1082783;39;20384;-71
2022/02/27 06:23:39;;;;;;;6.80;4.20;;;4.60;71.80;;;;;;1082467;46;20146;-70
2022/02/27 06:25:00;;;;;;;8.32;4.03;;;4.60;71.90;;;;;;1082256;46;20042;-70
2022/02/27 06:26:21;;;;;;;5.90;4.30;;;4.60;71.90;;;;;;1081534;47;20045;-72
2022/02/27 06:27:43;;;;;;;6.30;4.40;;;4.60;71.90;;;;;;1081421;46;20046;-71
2022/02/27 06:29:04;;;;;;;6.68;3.97;;;4.60;72.10;;;;;;1082235;46;20034;-72
2022/02/27 06:30:26;;;;;;;6.82;3.85;;;4.60;72.00;;;;;;1081780;47;20034;-71
2022/02/27 06:31:46;;;;;;;7.30;4.50;;;4.60;72.00;;;;;;1082424;46;20173;-70
2022/02/27 06:33:07;;;;;;;7.15;4.18;;;4.60;72.00;;;;;;1082492;46;20050;-70
2022/02/27 06:34:28;;;;;;;4.57;3.88;;;4.60;72.00;;;;;;1082598;46;20057;-70
2022/02/27 06:35:49;;;;;;;7.05;3.90;;;4.60;72.00;;;;;;1082354;46;20129;-70
2022/02/27 06:37:10;;;;;;;9.60;4.03;;;4.60;72.10;;;;;;1082196;46;20034;-70
2022/02/27 06:38:32;;;;;;;7.38;3.95;;;4.60;72.20;;;;;;1082000;46;20078;-70
2022/02/27 06:39:53;;;;;;;6.88;4.20;;;4.60;72.30;;;;;;1081715;47;20063;-71
2022/02/27 06:41:15;;;;;;;8.68;4.15;;;4.60;72.30;;;;;;1082098;46;20038;-71
2022/02/27 06:42:38;;;;;;;6.70;4.60;;;4.60;72.40;;;;;;1081909;46;20041;-71
2022/02/27 06:43:59;;;;;;;6.32;3.63;;;4.60;72.50;;;;;;1082495;46;20076;-71
2022/02/27 06:45:20;;;;;;;5.90;4.10;;;4.60;72.30;;;;;;1082303;46;20034;-71
2022/02/27 06:46:41;;;;;;;7.28;3.88;;;4.60;72.30;;;;;;1082556;46;20046;-72
2022/02/27 06:48:02;;;;;;;5.47;3.88;;;4.60;72.40;;;;;;1081957;46;20042;-71
2022/02/27 06:49:24;;;;;;;9.30;4.43;;;4.60;72.40;;;;;;1082270;46;20046;-71
2022/02/27 06:50:45;;;;;;;5.28;3.90;;;4.60;72.50;;;;;;1081795;46;20061;-71
2022/02/27 06:52:06;;;;;;;7.85;4.07;;;4.60;73.20;;;;;;1082234;46;20194;-71
2022/02/27 06:53:27;;;;;;;10.90;4.57;;;4.60;72.40;;;;;;1082017;46;20094;-71
2022/02/27 06:54:48;;;;;;;7.45;4.30;;;4.60;72.40;;;;;;1082045;46;20086;-71
2022/02/27 06:56:09;;;;;;;6.38;4.53;;;4.60;72.50;;;;;;1082026;47;20089;-71
2022/02/27 06:57:33;;;;;;;10.73;5.18;;;4.60;72.60;;;;;;1081987;46;20542;-71
2022/02/27 06:58:54;;;;;;;6.60;4.45;;;4.60;72.60;;;;;;1082221;47;21256;-71
2022/02/27 07:00:16;;;;;;;6.93;4.10;;;4.60;72.60;;;;;;1081864;46;20030;-71
2022/02/27 07:01:38;;;;;;;8.20;4.22;;;4.60;72.70;;;;;;1081688;46;20038;-70
2022/02/27 07:02:59;;;;;;;7.43;4.43;;;4.60;72.60;;;;;;1082348;47;20035;-71
2022/02/27 07:04:20;;;;;;;6.00;3.75;;;4.70;72.70;;;;;;1082615;46;20054;-71
2022/02/27 07:05:41;;;;;;;6.18;3.67;;;4.70;72.70;;;;;;1082152;46;20038;-71
2022/02/27 07:07:03;;;;;;;6.75;4.07;;;4.70;72.90;;;;;;1082005;46;20034;-71
2022/02/27 07:08:23;;;;;;;6.47;4.00;;;4.70;72.80;;;;;;1081062;47;20724;-71
2022/02/27 07:09:44;;;;;;;6.90;4.57;;;4.70;72.90;;;;;;1081686;46;20086;-71
2022/02/27 07:11:06;;;;;;;6.43;3.78;;;4.70;72.90;;;;;;1081160;46;20042;-72
2022/02/27 07:12:32;;;;;;;11.45;5.05;;;4.70;72.90;;;;;;1082096;46;20034;-72
2022/02/27 07:13:54;;;;;;;6.20;3.65;;;4.70;73.00;;;;;;1081568;47;20058;-71
2022/02/27 07:15:15;;;;;;;5.55;4.13;;;4.70;72.90;;;;;;1081828;46;20042;-72
2022/02/27 07:16:37;;;;;;;6.45;3.85;;;4.80;73.00;;;;;;1081976;46;20050;-71
2022/02/27 07:18:00;;;;;;;5.63;4.00;;;4.80;73.10;;;;;;1082142;46;20034;-71
2022/02/27 07:19:24;;;;;;;8.32;3.97;;;4.80;73.00;;;;;;1082098;46;20038;-72
2022/02/27 07:20:45;;;;;;;6.85;3.90;;;4.90;73.00;;;;;;1082085;46;20034;-71
2022/02/27 07:22:06;;;;;;;7.18;4.40;;;4.90;73.00;;;;;;1081828;46;20034;-71
2022/02/27 07:23:27;;;;;;;7.30;4.38;;;4.90;73.10;;;;;;1082612;46;20039;-72
2022/02/27 07:24:49;;;;;;;6.25;4.22;;;4.90;73.10;;;;;;1081768;47;20058;-71
2022/02/27 07:26:10;;;;;;;8.10;4.10;;;4.90;73.10;;;;;;1081898;47;20057;-70
2022/02/27 07:27:35;;;;;;;7.63;4.43;;;4.90;73.00;;;;;;1081733;46;20059;-73
2022/02/27 07:28:55;;;;;;;6.35;4.03;;;4.90;73.40;;;;;;1079486;46;20130;-74
2022/02/27 07:30:17;;;;;;;4.85;3.63;;;5.00;73.10;;;;;;1080894;46;20058;-73
2022/02/27 07:31:39;;;;;;;7.78;4.07;;;5.00;73.10;;;;;;1081758;39;20505;-75
2022/02/27 07:33:00;;;;;;;7.13;4.40;;;5.00;73.10;;;;;;1081277;46;20030;-74
2022/02/27 07:34:21;;;;;;;6.43;4.03;;;5.00;73.10;;;;;;1080366;47;20519;-75
2022/02/27 07:35:42;;;;;;;4.32;3.78;;;5.10;73.10;;;;;;1082038;46;20046;-75
2022/02/27 07:37:03;;;;;;;6.75;4.03;;;5.10;73.10;;;;;;1082779;47;20057;-74
2022/02/27 07:38:24;;;;;;;7.47;3.67;;;5.10;73.10;;;;;;1082787;46;20034;-75
2022/02/27 07:39:45;;;;;;;5.40;4.13;;;5.20;73.10;;;;;;1081939;46;20034;-74
2022/02/27 07:41:06;;;;;;;7.05;4.03;;;5.20;73.00;;;;;;1082363;46;20035;-77
2022/02/27 07:42:27;;;;;;;4.55;3.60;;;5.20;73.00;;;;;;1082747;46;20041;-74